createdAt,value
2017-05-04T00:00:38.283Z,0
2017-05-04T00:01:38.014Z,0
2017-05-04T00:02:37.687Z,0
2017-05-04T00:03:37.979Z,0
2017-05-04T00:04:37.944Z,0
2017-05-04T00:05:37.920Z,0
2017-05-04T00:06:37.898Z,0
2017-05-04T00:07:37.880Z,0
2017-05-04T00:08:37.849Z,0
2017-05-04T00:09:37.837Z,0
2017-05-04T00:10:37.809Z,0
2017-05-04T00:11:37.777Z,0
2017-05-04T00:12:37.806Z,0
2017-05-04T00:13:37.811Z,0
2017-05-04T00:14:37.714Z,0
2017-05-04T00:15:37.445Z,0
2017-05-04T00:16:37.366Z,0
2017-05-04T00:17:37.652Z,0
2017-05-04T00:18:37.680Z,0
2017-05-04T00:19:37.307Z,0
2017-05-04T00:20:37.577Z,0
2017-05-04T00:21:37.248Z,0
2017-05-04T00:22:37.529Z,0
2017-05-04T00:23:37.514Z,0
2017-05-04T00:24:37.482Z,0
2017-05-04T00:25:37.468Z,0
2017-05-04T00:26:37.441Z,0
2017-05-04T00:27:37.419Z,0
2017-05-04T00:28:37.399Z,0
2017-05-04T00:29:37.068Z,0
2017-05-04T00:30:37.355Z,0
2017-05-04T00:31:37.326Z,0
2017-05-04T00:32:37.317Z,0
2017-05-04T00:33:37.282Z,0
2017-05-04T00:34:37.249Z,0
2017-05-04T00:35:37.227Z,0
2017-05-04T00:36:37.204Z,0
2017-05-04T00:37:36.889Z,0
2017-05-04T00:38:37.168Z,0
2017-05-04T00:39:37.140Z,0
2017-05-04T00:40:37.117Z,0
2017-05-04T00:41:37.102Z,0
2017-05-04T00:42:37.078Z,0
2017-05-04T00:43:37.051Z,0
2017-05-04T00:44:37.028Z,0
2017-05-04T00:45:37.002Z,0
2017-05-04T00:46:37.022Z,0
2017-05-04T00:47:36.658Z,0
2017-05-04T00:48:36.963Z,0
2017-05-04T00:49:36.979Z,0
2017-05-04T00:50:36.891Z,0
2017-05-04T00:51:36.620Z,0
2017-05-04T00:52:36.840Z,0
2017-05-04T00:53:36.831Z,0
2017-05-04T00:54:36.795Z,0
2017-05-04T00:55:36.824Z,0
2017-05-04T00:56:36.754Z,0
2017-05-04T00:57:36.753Z,0
2017-05-04T00:58:36.709Z,0
2017-05-04T00:59:36.695Z,0
2017-05-04T01:00:36.670Z,0
2017-05-04T01:01:36.648Z,0
2017-05-04T01:02:36.315Z,0
2017-05-04T01:03:36.297Z,0
2017-05-04T01:04:36.575Z,0
2017-05-04T01:05:36.598Z,0
2017-05-04T01:06:36.535Z,0
2017-05-04T01:07:36.514Z,0
2017-05-04T01:08:36.495Z,0
2017-05-04T01:09:36.476Z,0
2017-05-04T01:10:36.440Z,0
2017-05-04T01:11:36.464Z,0
2017-05-04T01:12:36.386Z,0
2017-05-04T01:13:36.371Z,0
2017-05-04T01:14:36.348Z,0
2017-05-04T01:15:36.328Z,0
2017-05-04T01:16:36.301Z,0
2017-05-04T01:17:36.273Z,0
2017-05-04T01:18:36.250Z,0
2017-05-04T01:19:35.931Z,0
2017-05-04T01:20:36.284Z,0
2017-05-04T01:21:36.181Z,0
2017-05-04T01:22:36.154Z,0
2017-05-04T01:23:36.141Z,0
2017-05-04T01:24:35.803Z,0
2017-05-04T01:25:36.144Z,0
2017-05-04T01:26:36.064Z,0
2017-05-04T01:27:36.050Z,0
2017-05-04T01:28:36.275Z,0
2017-05-04T01:29:36.021Z,0
2017-05-04T01:30:35.970Z,0
2017-05-04T01:31:35.949Z,0
2017-05-04T01:32:35.928Z,0
2017-05-04T01:33:35.908Z,0
2017-05-04T01:34:35.932Z,0
2017-05-04T01:35:35.862Z,0
2017-05-04T01:36:35.836Z,0
2017-05-04T01:37:35.869Z,0
2017-05-04T01:38:35.792Z,0
2017-05-04T01:39:35.467Z,0
2017-05-04T01:40:36.048Z,0
2017-05-04T01:41:35.728Z,0
2017-05-04T01:42:35.693Z,0
2017-05-04T01:43:35.670Z,0
2017-05-04T01:44:35.655Z,0
2017-05-04T01:45:35.631Z,0
2017-05-04T01:46:35.557Z,0
2017-05-04T01:47:35.644Z,0
2017-05-04T01:48:35.568Z,0
2017-05-04T01:49:35.596Z,0
2017-05-04T01:50:35.512Z,0
2017-05-04T01:51:35.493Z,0
2017-05-04T01:52:35.469Z,0
2017-05-04T01:53:35.460Z,0
2017-05-04T01:54:35.119Z,0
2017-05-04T01:55:35.403Z,0
2017-05-04T01:56:35.376Z,0
2017-05-04T01:57:35.052Z,0
2017-05-04T01:58:35.330Z,0
2017-05-04T01:59:35.313Z,0
2017-05-04T02:00:35.282Z,0
2017-05-04T02:01:35.262Z,0
2017-05-04T02:02:35.537Z,0
2017-05-04T02:03:35.217Z,0
2017-05-04T02:04:35.197Z,0
2017-05-04T02:05:34.559Z,0
2017-05-04T02:06:35.147Z,0
2017-05-04T02:07:35.123Z,0
2017-05-04T02:08:35.109Z,0
2017-05-04T02:09:35.082Z,0
2017-05-04T02:10:35.051Z,0
2017-05-04T02:11:35.069Z,0
2017-05-04T02:12:35.013Z,0
2017-05-04T02:13:34.978Z,0
2017-05-04T02:14:34.963Z,0
2017-05-04T02:15:34.945Z,0
2017-05-04T02:16:34.620Z,0
2017-05-04T02:17:34.897Z,0
2017-05-04T02:18:34.864Z,0
2017-05-04T02:19:34.843Z,0
2017-05-04T02:20:34.555Z,0
2017-05-04T02:21:34.800Z,0
2017-05-04T02:22:34.771Z,0
2017-05-04T02:23:34.450Z,0
2017-05-04T02:24:34.440Z,0
2017-05-04T02:25:34.705Z,0
2017-05-04T02:26:34.684Z,0
2017-05-04T02:27:34.671Z,0
2017-05-04T02:28:34.645Z,0
2017-05-04T02:29:34.612Z,0
2017-05-04T02:30:34.587Z,0
2017-05-04T02:31:34.615Z,0
2017-05-04T02:32:34.539Z,0
2017-05-04T02:33:34.519Z,0
2017-05-04T02:34:34.494Z,0
2017-05-04T02:35:34.479Z,0
2017-05-04T02:36:34.451Z,0
2017-05-04T02:37:34.427Z,0
2017-05-04T02:38:34.416Z,0
2017-05-04T02:39:34.383Z,0
2017-05-04T02:40:34.352Z,0
2017-05-04T02:41:34.030Z,0
2017-05-04T02:42:34.325Z,0
2017-05-04T02:43:34.295Z,0
2017-05-04T02:44:34.268Z,0
2017-05-04T02:45:34.267Z,0
2017-05-04T02:46:34.222Z,0
2017-05-04T02:47:34.194Z,0
2017-05-04T02:48:34.176Z,0
2017-05-04T02:49:34.149Z,0
2017-05-04T02:50:34.121Z,0
2017-05-04T02:51:34.113Z,0
2017-05-04T02:52:34.108Z,0
2017-05-04T02:53:34.065Z,0
2017-05-04T02:54:34.046Z,0
2017-05-04T02:55:34.027Z,0
2017-05-04T02:56:34.043Z,0
2017-05-04T02:57:33.959Z,0
2017-05-04T02:58:33.957Z,0
2017-05-04T02:59:33.913Z,0
2017-05-04T03:00:33.955Z,0
2017-05-04T03:01:33.864Z,0
2017-05-04T03:02:33.848Z,0
2017-05-04T03:03:33.819Z,0
2017-05-04T03:04:33.802Z,0
2017-05-04T03:05:33.770Z,0
2017-05-04T03:06:33.774Z,0
2017-05-04T03:07:33.470Z,0
2017-05-04T03:08:33.403Z,0
2017-05-04T03:09:33.681Z,0
2017-05-04T03:10:33.666Z,0
2017-05-04T03:11:33.647Z,0
2017-05-04T03:12:33.604Z,0
2017-05-04T03:13:33.596Z,0
2017-05-04T03:14:33.561Z,0
2017-05-04T03:15:33.546Z,0
2017-05-04T03:16:33.517Z,0
2017-05-04T03:17:33.500Z,0
2017-05-04T03:18:33.461Z,0
2017-05-04T03:19:33.448Z,0
2017-05-04T03:20:33.438Z,4
2017-05-04T03:21:33.457Z,4
2017-05-04T03:22:33.372Z,4
2017-05-04T03:23:33.359Z,0
2017-05-04T03:24:33.328Z,4
2017-05-04T03:25:33.333Z,4
2017-05-04T03:26:33.277Z,8
2017-05-04T03:27:33.004Z,4
2017-05-04T03:28:33.269Z,8
2017-05-04T03:29:33.209Z,8
2017-05-04T03:30:33.195Z,8
2017-05-04T03:31:33.179Z,12
2017-05-04T03:32:33.137Z,12
2017-05-04T03:33:33.119Z,16
2017-05-04T03:34:33.093Z,16
2017-05-04T03:35:33.076Z,16
2017-05-04T03:36:33.048Z,20
2017-05-04T03:37:33.072Z,20
2017-05-04T03:38:32.698Z,24
2017-05-04T03:39:32.983Z,24
2017-05-04T03:40:32.950Z,28
2017-05-04T03:41:32.922Z,28
2017-05-04T03:42:32.912Z,32
2017-05-04T03:43:32.883Z,36
2017-05-04T03:44:32.863Z,40
2017-05-04T03:45:32.862Z,44
2017-05-04T03:46:32.809Z,44
2017-05-04T03:47:32.791Z,44
2017-05-04T03:48:32.773Z,48
2017-05-04T03:49:32.742Z,52
2017-05-04T03:50:32.714Z,56
2017-05-04T03:51:32.688Z,60
2017-05-04T03:52:32.673Z,72
2017-05-04T03:53:32.655Z,76
2017-05-04T03:54:32.619Z,84
2017-05-04T03:55:32.303Z,92
2017-05-04T03:56:32.575Z,100
2017-05-04T03:57:32.549Z,112
2017-05-04T03:58:32.526Z,120
2017-05-04T03:59:32.505Z,128
2017-05-04T04:00:32.484Z,132
2017-05-04T04:01:32.464Z,148
2017-05-04T04:02:32.429Z,156
2017-05-04T04:03:32.418Z,172
2017-05-04T04:04:32.387Z,188
2017-05-04T04:05:32.363Z,192
2017-05-04T04:06:32.342Z,212
2017-05-04T04:07:32.368Z,240
2017-05-04T04:08:32.296Z,272
2017-05-04T04:09:32.269Z,308
2017-05-04T04:10:32.304Z,364
2017-05-04T04:11:32.224Z,424
2017-05-04T04:12:32.198Z,500
2017-05-04T04:13:32.182Z,608
2017-05-04T04:14:32.154Z,720
2017-05-04T04:15:32.179Z,804
2017-05-04T04:16:32.101Z,808
2017-05-04T04:17:32.081Z,792
2017-05-04T04:18:32.065Z,796
2017-05-04T04:19:32.044Z,792
2017-05-04T04:20:32.017Z,792
2017-05-04T04:21:32.020Z,828
2017-05-04T04:22:31.974Z,876
2017-05-04T04:23:32.253Z,904
2017-05-04T04:24:31.924Z,924
2017-05-04T04:25:31.893Z,928
2017-05-04T04:26:31.869Z,932
2017-05-04T04:27:31.849Z,960
2017-05-04T04:28:31.828Z,1040
2017-05-04T04:29:31.810Z,1208
2017-05-04T04:30:31.489Z,1436
2017-05-04T04:31:31.757Z,1696
2017-05-04T04:32:46.336Z,1964
2017-05-04T04:33:31.723Z,2104
2017-05-04T04:34:31.681Z,2284
2017-05-04T04:35:31.661Z,2416
2017-05-04T04:36:31.635Z,2432
2017-05-04T04:37:31.612Z,2400
2017-05-04T04:38:31.591Z,2356
2017-05-04T04:39:31.574Z,2344
2017-05-04T04:40:31.540Z,2348
2017-05-04T04:41:31.216Z,2304
2017-05-04T04:42:31.504Z,2180
2017-05-04T04:43:31.473Z,2032
2017-05-04T04:44:31.454Z,1888
2017-05-04T04:45:31.457Z,1764
2017-05-04T04:46:31.433Z,1668
2017-05-04T04:47:31.380Z,1620
2017-05-04T04:48:31.353Z,1592
2017-05-04T04:49:31.331Z,1592
2017-05-04T04:50:31.318Z,1568
2017-05-04T04:51:30.986Z,1492
2017-05-04T04:52:31.272Z,1416
2017-05-04T04:53:30.937Z,1416
2017-05-04T04:54:31.208Z,1472
2017-05-04T04:55:31.249Z,1560
2017-05-04T04:56:31.170Z,1652
2017-05-04T04:57:31.156Z,1732
2017-05-04T04:58:31.128Z,1884
2017-05-04T04:59:31.106Z,2176
2017-05-04T05:00:31.075Z,2564
2017-05-04T05:01:31.093Z,2848
2017-05-04T05:02:31.032Z,3044
2017-05-04T05:03:31.005Z,3104
2017-05-04T05:04:30.977Z,3096
2017-05-04T05:05:30.960Z,3148
2017-05-04T05:06:30.935Z,3184
2017-05-04T05:07:30.906Z,3280
2017-05-04T05:08:30.889Z,3288
2017-05-04T05:09:30.860Z,3252
2017-05-04T05:10:30.536Z,3316
2017-05-04T05:11:30.831Z,3476
2017-05-04T05:12:30.794Z,3556
2017-05-04T05:13:30.463Z,3596
2017-05-04T05:14:30.765Z,3620
2017-05-04T05:15:30.716Z,3656
2017-05-04T05:16:30.749Z,3728
2017-05-04T05:17:30.674Z,3836
2017-05-04T05:18:30.700Z,3940
2017-05-04T05:19:30.655Z,4024
2017-05-04T05:20:30.609Z,4064
2017-05-04T05:21:30.584Z,4132
2017-05-04T05:22:30.566Z,4224
2017-05-04T05:23:30.536Z,4416
2017-05-04T05:24:30.225Z,4636
2017-05-04T05:25:30.236Z,4808
2017-05-04T05:26:30.462Z,4864
2017-05-04T05:27:30.443Z,4908
2017-05-04T05:28:30.420Z,5012
2017-05-04T05:29:30.403Z,5220
2017-05-04T05:30:30.366Z,5388
2017-05-04T05:31:30.402Z,5508
2017-05-04T05:32:30.330Z,5688
2017-05-04T05:33:30.318Z,5824
2017-05-04T05:34:30.338Z,5836
2017-05-04T05:35:30.259Z,5832
2017-05-04T05:36:30.239Z,5932
2017-05-04T05:37:29.914Z,6132
2017-05-04T05:38:30.201Z,6404
2017-05-04T05:39:30.209Z,6772
2017-05-04T05:40:30.207Z,7060
2017-05-04T05:41:29.820Z,7244
2017-05-04T05:42:30.092Z,7384
2017-05-04T05:43:30.082Z,7456
2017-05-04T05:44:30.046Z,7420
2017-05-04T05:45:29.733Z,7568
2017-05-04T05:46:29.757Z,7776
2017-05-04T05:47:29.998Z,8000
2017-05-04T05:48:29.968Z,8288
2017-05-04T05:49:29.938Z,8748
2017-05-04T05:50:29.666Z,9320
2017-05-04T05:51:29.898Z,9824
2017-05-04T05:52:29.878Z,10360
2017-05-04T05:53:29.852Z,10932
2017-05-04T05:54:29.831Z,11644
2017-05-04T05:55:29.799Z,14332
2017-05-04T05:56:29.776Z,14012
2017-05-04T05:57:29.763Z,13256
2017-05-04T05:58:29.738Z,12572
2017-05-04T05:59:29.407Z,13320
2017-05-04T06:00:29.736Z,17184
2017-05-04T06:01:29.664Z,11488
2017-05-04T06:02:29.357Z,10860
2017-05-04T06:03:29.316Z,10348
2017-05-04T06:04:29.606Z,10092
2017-05-04T06:05:29.275Z,9896
2017-05-04T06:06:29.559Z,9808
2017-05-04T06:07:29.536Z,9748
2017-05-04T06:08:29.546Z,9636
2017-05-04T06:09:29.489Z,9580
2017-05-04T06:10:28.861Z,9636
2017-05-04T06:11:29.438Z,9860
2017-05-04T06:12:29.157Z,10236
2017-05-04T06:13:29.460Z,9760
2017-05-04T06:14:29.387Z,9644
2017-05-04T06:15:29.352Z,9656
2017-05-04T06:16:29.336Z,9744
2017-05-04T06:17:29.314Z,9788
2017-05-04T06:18:29.283Z,9776
2017-05-04T06:19:29.270Z,9744
2017-05-04T06:20:29.239Z,9756
2017-05-04T06:21:29.267Z,9612
2017-05-04T06:22:29.190Z,9408
2017-05-04T06:23:29.279Z,9144
2017-05-04T06:24:29.405Z,8848
2017-05-04T06:25:29.127Z,8688
2017-05-04T06:26:29.120Z,8556
2017-05-04T06:27:29.093Z,8448
2017-05-04T06:28:29.069Z,8488
2017-05-04T06:29:29.093Z,8584
2017-05-04T06:30:29.069Z,8728
2017-05-04T06:31:28.984Z,8816
2017-05-04T06:32:28.984Z,8964
2017-05-04T06:33:28.638Z,9104
2017-05-04T06:34:28.920Z,9192
2017-05-04T06:35:28.899Z,9360
2017-05-04T06:36:28.888Z,9452
2017-05-04T06:37:28.559Z,9440
2017-05-04T06:38:28.827Z,9384
2017-05-04T06:39:28.812Z,9484
2017-05-04T06:40:28.787Z,9656
2017-05-04T06:41:28.818Z,9868
2017-05-04T06:42:28.766Z,10120
2017-05-04T06:43:28.721Z,10416
2017-05-04T06:44:28.392Z,10800
2017-05-04T06:45:28.378Z,10784
2017-05-04T06:46:28.649Z,10984
2017-05-04T06:47:28.634Z,10952
2017-05-04T06:48:28.614Z,10800
2017-05-04T06:49:28.614Z,10760
2017-05-04T06:50:28.570Z,10836
2017-05-04T06:51:28.540Z,10580
2017-05-04T06:52:28.514Z,10400
2017-05-04T06:53:28.497Z,10280
2017-05-04T06:54:28.470Z,10184
2017-05-04T06:55:28.490Z,10028
2017-05-04T06:56:28.457Z,9812
2017-05-04T06:57:28.414Z,9852
2017-05-04T06:58:28.082Z,10020
2017-05-04T06:59:28.065Z,10356
2017-05-04T07:00:28.036Z,10756
2017-05-04T07:01:28.326Z,10868
2017-05-04T07:02:28.299Z,10640
2017-05-04T07:03:27.973Z,10632
2017-05-04T07:04:28.248Z,10724
2017-05-04T07:05:28.227Z,10804
2017-05-04T07:06:28.203Z,11160
2017-05-04T07:07:28.195Z,11624
2017-05-04T07:08:28.157Z,12084
2017-05-04T07:09:28.138Z,12572
2017-05-04T07:10:28.123Z,13120
2017-05-04T07:11:28.114Z,13664
2017-05-04T07:12:28.074Z,14388
2017-05-04T07:13:28.055Z,15236
2017-05-04T07:14:28.033Z,16576
2017-05-04T07:15:27.695Z,17888
2017-05-04T07:16:27.982Z,19264
2017-05-04T07:17:27.949Z,20672
2017-05-04T07:18:27.936Z,25984
2017-05-04T07:19:27.909Z,24608
2017-05-04T07:20:27.892Z,22592
2017-05-04T07:21:27.865Z,21120
2017-05-04T07:22:27.845Z,19296
2017-05-04T07:23:27.822Z,17760
2017-05-04T07:24:27.805Z,15544
2017-05-04T07:25:27.780Z,13216
2017-05-04T07:26:27.759Z,11532
2017-05-04T07:27:27.743Z,10416
2017-05-04T07:28:27.720Z,10208
2017-05-04T07:29:27.686Z,10636
2017-05-04T07:30:27.673Z,12272
2017-05-04T07:31:27.647Z,14304
2017-05-04T07:32:27.622Z,16608
2017-05-04T07:33:27.307Z,18336
2017-05-04T07:34:27.579Z,18496
2017-05-04T07:35:27.560Z,18720
2017-05-04T07:36:27.543Z,18400
2017-05-04T07:37:27.517Z,18048
2017-05-04T07:38:27.510Z,19712
2017-05-04T07:39:27.219Z,22848
2017-05-04T07:40:27.454Z,24224
2017-05-04T07:41:27.434Z,25088
2017-05-04T07:42:27.416Z,27040
2017-05-04T07:43:27.389Z,31488
2017-05-04T07:44:27.363Z,29344
2017-05-04T07:45:27.044Z,30016
2017-05-04T07:46:27.327Z,27040
2017-05-04T07:47:27.295Z,24416
2017-05-04T07:48:27.298Z,29632
2017-05-04T07:49:27.251Z,34240
2017-05-04T07:50:27.249Z,28480
2017-05-04T07:51:27.215Z,31360
2017-05-04T07:52:27.200Z,28608
2017-05-04T07:53:27.475Z,31616
2017-05-04T07:54:27.149Z,35520
2017-05-04T07:55:27.141Z,34976
2017-05-04T07:56:27.104Z,37440
2017-05-04T07:57:27.082Z,34272
2017-05-04T07:58:27.070Z,31136
2017-05-04T07:59:27.051Z,34176
2017-05-04T08:00:27.028Z,32928
2017-05-04T08:01:27.012Z,42912
2017-05-04T08:02:26.989Z,31104
2017-05-04T08:03:26.664Z,28896
2017-05-04T08:04:26.945Z,39264
2017-05-04T08:05:26.925Z,47328
2017-05-04T08:06:26.909Z,41632
2017-05-04T08:07:26.579Z,66784
2017-05-04T08:08:26.870Z,60544
2017-05-04T08:09:26.841Z,42976
2017-05-04T08:10:26.826Z,39744
2017-05-04T08:11:26.508Z,27808
2017-05-04T08:12:26.797Z,27840
2017-05-04T08:13:26.770Z,30848
2017-05-04T08:14:26.755Z,32192
2017-05-04T08:15:26.437Z,34432
2017-05-04T08:16:26.726Z,63040
2017-05-04T08:17:26.694Z,47168
2017-05-04T08:18:26.370Z,39808
2017-05-04T08:19:26.658Z,40256
2017-05-04T08:20:26.951Z,57248
2017-05-04T08:21:26.616Z,59488
2017-05-04T08:22:26.611Z,44608
2017-05-04T08:23:26.608Z,63040
2017-05-04T08:24:26.518Z,63968
2017-05-04T08:25:26.549Z,59648
2017-05-04T08:26:26.531Z,55168
2017-05-04T08:27:26.218Z,55104
2017-05-04T08:28:26.196Z,54336
2017-05-04T08:29:26.492Z,53280
2017-05-04T08:30:26.461Z,56064
2017-05-04T08:31:26.462Z,48672
2017-05-04T08:32:26.431Z,23264
2017-05-04T08:33:26.434Z,20576
2017-05-04T08:34:26.408Z,20672
2017-05-04T08:35:26.394Z,24256
2017-05-04T08:36:26.384Z,28384
2017-05-04T08:37:26.348Z,37408
2017-05-04T08:38:26.338Z,24768
2017-05-04T08:39:26.323Z,21568
2017-05-04T08:40:26.547Z,27392
2017-05-04T08:41:26.283Z,44480
2017-05-04T08:42:26.266Z,41120
2017-05-04T08:43:26.252Z,27072
2017-05-04T08:44:26.247Z,26272
2017-05-04T08:45:25.911Z,18912
2017-05-04T08:46:26.192Z,14848
2017-05-04T08:47:26.172Z,17280
2017-05-04T08:48:26.165Z,22784
2017-05-04T08:49:26.138Z,38400
2017-05-04T08:50:25.811Z,26144
2017-05-04T08:51:25.800Z,26944
2017-05-04T08:52:26.070Z,24928
2017-05-04T08:53:26.082Z,31712
2017-05-04T08:54:26.044Z,24000
2017-05-04T08:55:26.022Z,22848
2017-05-04T08:56:26.008Z,36224
2017-05-04T08:57:25.700Z,30848
2017-05-04T08:58:25.959Z,43136
2017-05-04T08:59:25.950Z,33344
2017-05-04T09:00:25.941Z,29696
2017-05-04T09:01:25.911Z,28544
2017-05-04T09:02:25.888Z,28032
2017-05-04T09:03:25.274Z,32256
2017-05-04T09:04:25.843Z,31840
2017-05-04T09:05:25.827Z,31200
2017-05-04T09:06:25.511Z,30496
2017-05-04T09:07:25.789Z,32992
2017-05-04T09:08:25.469Z,31584
2017-05-04T09:09:25.750Z,34016
2017-05-04T09:10:25.731Z,35648
2017-05-04T09:11:25.715Z,42880
2017-05-04T09:12:25.688Z,59392
2017-05-04T09:13:25.377Z,62848
2017-05-04T09:14:25.649Z,63072
2017-05-04T09:15:25.622Z,61248
2017-05-04T09:16:25.312Z,52896
2017-05-04T09:17:25.290Z,60000
2017-05-04T09:18:25.589Z,62144
2017-05-04T09:19:25.560Z,37344
2017-05-04T09:20:25.535Z,60320
2017-05-04T09:21:25.527Z,64256
2017-05-04T09:22:25.819Z,34560
2017-05-04T09:23:25.190Z,39040
2017-05-04T09:24:25.156Z,31968
2017-05-04T09:25:25.451Z,27456
2017-05-04T09:26:25.433Z,20800
2017-05-04T09:27:25.412Z,24256
2017-05-04T09:28:25.391Z,24160
2017-05-04T09:29:25.381Z,25664
2017-05-04T09:30:25.358Z,17984
2017-05-04T09:31:25.340Z,19616
2017-05-04T09:32:25.322Z,19456
2017-05-04T09:33:25.305Z,19776
2017-05-04T09:34:24.983Z,21696
2017-05-04T09:35:25.264Z,23360
2017-05-04T09:36:25.243Z,22432
2017-05-04T09:37:25.229Z,19584
2017-05-04T09:38:25.215Z,21344
2017-05-04T09:39:25.220Z,19296
2017-05-04T09:40:25.169Z,17120
2017-05-04T09:41:24.851Z,18336
2017-05-04T09:42:24.826Z,22752
2017-05-04T09:43:25.119Z,22880
2017-05-04T09:44:25.094Z,22560
2017-05-04T09:45:24.466Z,23040
2017-05-04T09:46:25.083Z,28448
2017-05-04T09:47:25.041Z,31200
2017-05-04T09:48:24.700Z,28992
2017-05-04T09:49:24.926Z,31840
2017-05-04T09:50:24.980Z,26816
2017-05-04T09:51:24.643Z,26528
2017-05-04T09:52:24.928Z,23584
2017-05-04T09:53:24.905Z,30208
2017-05-04T09:54:24.886Z,24352
2017-05-04T09:55:24.867Z,23104
2017-05-04T09:56:24.849Z,27072
2017-05-04T09:57:24.832Z,27616
2017-05-04T09:58:24.817Z,27936
2017-05-04T09:59:24.791Z,63424
2017-05-04T10:00:24.762Z,31680
2017-05-04T10:01:24.763Z,62464
2017-05-04T10:02:24.735Z,34208
2017-05-04T10:03:24.712Z,54496
2017-05-04T10:04:24.691Z,54784
2017-05-04T10:05:24.692Z,30784
2017-05-04T10:06:24.656Z,42080
2017-05-04T10:07:24.629Z,72096
2017-05-04T10:08:24.618Z,38752
2017-05-04T10:09:24.597Z,33728
2017-05-04T10:10:24.573Z,36448
2017-05-04T10:11:24.539Z,34720
2017-05-04T10:12:24.529Z,30688
2017-05-04T10:13:24.220Z,35392
2017-05-04T10:14:24.488Z,36512
2017-05-04T10:15:24.476Z,28768
2017-05-04T10:16:24.451Z,31104
2017-05-04T10:17:24.428Z,41632
2017-05-04T10:18:24.407Z,23712
2017-05-04T10:19:24.128Z,23776
2017-05-04T10:20:24.380Z,26976
2017-05-04T10:21:24.360Z,28864
2017-05-04T10:22:24.340Z,31136
2017-05-04T10:23:24.515Z,33920
2017-05-04T10:24:24.299Z,27264
2017-05-04T10:25:24.276Z,22048
2017-05-04T10:26:24.268Z,23360
2017-05-04T10:27:24.459Z,33536
2017-05-04T10:28:24.255Z,30816
2017-05-04T10:29:24.196Z,18592
2017-05-04T10:30:24.176Z,19264
2017-05-04T10:31:24.161Z,24288
2017-05-04T10:32:24.136Z,28000
2017-05-04T10:33:24.124Z,19328
2017-05-04T10:34:23.804Z,18880
2017-05-04T10:35:24.073Z,19168
2017-05-04T10:36:24.062Z,21664
2017-05-04T10:37:24.036Z,20768
2017-05-04T10:38:24.018Z,17728
2017-05-04T10:39:24.001Z,15736
2017-05-04T10:40:23.683Z,17632
2017-05-04T10:41:23.956Z,17536
2017-05-04T10:42:23.944Z,17440
2017-05-04T10:43:23.918Z,17920
2017-05-04T10:44:23.602Z,20064
2017-05-04T10:45:23.881Z,23232
2017-05-04T10:46:23.858Z,20480
2017-05-04T10:47:23.833Z,21824
2017-05-04T10:48:23.816Z,20416
2017-05-04T10:49:23.809Z,18560
2017-05-04T10:50:23.770Z,17344
2017-05-04T10:51:23.754Z,15832
2017-05-04T10:52:23.738Z,17760
2017-05-04T10:53:23.714Z,18400
2017-05-04T10:54:23.706Z,17408
2017-05-04T10:55:23.670Z,19168
2017-05-04T10:56:23.648Z,18304
2017-05-04T10:57:23.632Z,17536
2017-05-04T10:58:23.607Z,15700
2017-05-04T10:59:23.584Z,15264
2017-05-04T11:00:23.572Z,14080
2017-05-04T11:01:23.243Z,12460
2017-05-04T11:02:23.538Z,13360
2017-05-04T11:03:23.211Z,13548
2017-05-04T11:04:23.477Z,13120
2017-05-04T11:05:23.465Z,13796
2017-05-04T11:06:23.454Z,14828
2017-05-04T11:07:23.416Z,14760
2017-05-04T11:08:23.413Z,15104
2017-05-04T11:09:23.081Z,15736
2017-05-04T11:10:23.065Z,16352
2017-05-04T11:11:23.342Z,18368
2017-05-04T11:12:23.322Z,20928
2017-05-04T11:13:23.005Z,21984
2017-05-04T11:14:22.977Z,23584
2017-05-04T11:15:23.260Z,25152
2017-05-04T11:16:23.242Z,22560
2017-05-04T11:17:23.215Z,19520
2017-05-04T11:18:23.193Z,20128
2017-05-04T11:19:23.190Z,20032
2017-05-04T11:20:23.216Z,17472
2017-05-04T11:21:23.133Z,14868
2017-05-04T11:22:23.118Z,13500
2017-05-04T11:23:23.095Z,13792
2017-05-04T11:24:22.768Z,12124
2017-05-04T11:25:23.046Z,9392
2017-05-04T11:26:23.021Z,8964
2017-05-04T11:27:23.003Z,9836
2017-05-04T11:28:23.290Z,11288
2017-05-04T11:29:22.961Z,13316
2017-05-04T11:30:22.940Z,15364
2017-05-04T11:31:22.920Z,17728
2017-05-04T11:32:22.897Z,19040
2017-05-04T11:33:22.880Z,18592
2017-05-04T11:34:22.851Z,16320
2017-05-04T11:35:22.840Z,16364
2017-05-04T11:36:22.818Z,19264
2017-05-04T11:37:22.787Z,20000
2017-05-04T11:38:22.771Z,18976
2017-05-04T11:39:22.444Z,19392
2017-05-04T11:40:22.730Z,17952
2017-05-04T11:41:22.704Z,16628
2017-05-04T11:42:22.682Z,14660
2017-05-04T11:43:22.668Z,13076
2017-05-04T11:44:22.341Z,12492
2017-05-04T11:45:22.621Z,12760
2017-05-04T11:46:22.301Z,10968
2017-05-04T11:47:22.576Z,10028
2017-05-04T11:48:22.262Z,10524
2017-05-04T11:49:22.541Z,10124
2017-05-04T11:50:22.217Z,10324
2017-05-04T11:51:22.485Z,9580
2017-05-04T11:52:22.167Z,7604
2017-05-04T11:53:22.458Z,7372
2017-05-04T11:54:22.429Z,7080
2017-05-04T11:55:22.415Z,6800
2017-05-04T11:56:22.394Z,7252
2017-05-04T11:57:22.061Z,7320
2017-05-04T11:58:22.356Z,7052
2017-05-04T11:59:22.325Z,7560
2017-05-04T12:00:22.021Z,7792
2017-05-04T12:01:22.282Z,7408
2017-05-04T12:02:22.267Z,7144
2017-05-04T12:03:21.955Z,7340
2017-05-04T12:04:22.241Z,7452
2017-05-04T12:05:22.206Z,7208
2017-05-04T12:06:22.419Z,7556
2017-05-04T12:07:22.155Z,7744
2017-05-04T12:08:22.133Z,8220
2017-05-04T12:09:22.101Z,8400
2017-05-04T12:10:22.113Z,8384
2017-05-04T12:11:22.086Z,8876
2017-05-04T12:12:22.048Z,8248
2017-05-04T12:13:22.048Z,8112
2017-05-04T12:14:22.017Z,8328
2017-05-04T12:15:22.021Z,8788
2017-05-04T12:16:21.960Z,9804
2017-05-04T12:17:21.939Z,9792
2017-05-04T12:18:21.933Z,9860
2017-05-04T12:19:21.905Z,10296
2017-05-04T12:20:21.884Z,10136
2017-05-04T12:21:21.861Z,10064
2017-05-04T12:22:21.525Z,9604
2017-05-04T12:23:21.517Z,9360
2017-05-04T12:24:21.808Z,9424
2017-05-04T12:25:21.797Z,9420
2017-05-04T12:26:21.535Z,10040
2017-05-04T12:27:21.720Z,9964
2017-05-04T12:28:21.411Z,9824
2017-05-04T12:29:21.408Z,10104
2017-05-04T12:30:21.681Z,9504
2017-05-04T12:31:21.651Z,9004
2017-05-04T12:32:21.331Z,8768
2017-05-04T12:33:21.293Z,9268
2017-05-04T12:34:21.281Z,9892
2017-05-04T12:35:21.565Z,9972
2017-05-04T12:36:21.567Z,9700
2017-05-04T12:37:21.200Z,9252
2017-05-04T12:38:21.507Z,8788
2017-05-04T12:39:21.417Z,9176
2017-05-04T12:40:21.463Z,10212
2017-05-04T12:41:21.128Z,10072
2017-05-04T12:42:21.448Z,9728
2017-05-04T12:43:21.370Z,9528
2017-05-04T12:44:21.358Z,8916
2017-05-04T12:45:21.351Z,7572
2017-05-04T12:46:21.039Z,7452
2017-05-04T12:47:21.311Z,8044
2017-05-04T12:48:21.263Z,8480
2017-05-04T12:49:21.255Z,7820
2017-05-04T12:50:20.933Z,8112
2017-05-04T12:51:20.904Z,7856
2017-05-04T12:52:21.232Z,7804
2017-05-04T12:53:21.173Z,7984
2017-05-04T12:54:20.844Z,7352
2017-05-04T12:55:20.807Z,7056
2017-05-04T12:56:20.502Z,7904
2017-05-04T12:57:20.829Z,8916
2017-05-04T12:58:20.499Z,10296
2017-05-04T12:59:21.058Z,10700
2017-05-04T13:00:20.702Z,10948
2017-05-04T13:01:20.986Z,11336
2017-05-04T13:02:20.960Z,11984
2017-05-04T13:03:20.967Z,11728
2017-05-04T13:04:20.912Z,11196
2017-05-04T13:05:20.625Z,10308
2017-05-04T13:06:20.886Z,9352
2017-05-04T13:07:20.567Z,9348
2017-05-04T13:08:20.525Z,9044
2017-05-04T13:09:20.506Z,9004
2017-05-04T13:10:20.483Z,8504
2017-05-04T13:11:20.758Z,8528
2017-05-04T13:12:20.732Z,8496
2017-05-04T13:13:20.965Z,8108
2017-05-04T13:14:20.399Z,8580
2017-05-04T13:15:20.394Z,8236
2017-05-04T13:16:20.679Z,7924
2017-05-04T13:17:20.328Z,8376
2017-05-04T13:18:19.717Z,8864
2017-05-04T13:19:20.003Z,9308
2017-05-04T13:20:20.616Z,9816
2017-05-04T13:21:20.246Z,9848
2017-05-04T13:22:20.239Z,9932
2017-05-04T13:23:20.521Z,11168
2017-05-04T13:24:20.184Z,10548
2017-05-04T13:25:20.464Z,11988
2017-05-04T13:26:20.440Z,11396
2017-05-04T13:27:20.424Z,11808
2017-05-04T13:28:20.433Z,11264
2017-05-04T13:29:20.682Z,12028
2017-05-04T13:30:20.108Z,10764